Arnolds Park, Iowa
Current Conditions -  °F | °C
As of 4:53 PM on Tuesday 21 Oct 2014 (Local Time) from KSPW Reporting Station
Clear Clear  
Wind Chill: 21°   Ceiling: Unl
Heat Index: 21°   Visibility: 10mi
Dew Point:   Wind: 14mph
Humidity: 38%   Direction: 150°SSE
Pressure: 30.06"   Gusts: NA
Location:  43.37°N, 95.12°W
Report Text: KSPW 212153Z AUTO 15012KT 10SM CLR 21/06 A3006 RMK AO2 SLP183 T02060056 TSNO
Loading
Personal Weather Stations






























Interactive Weather Map
Tropical Storm Tracking
New forecast layout! Learn more

10-Day Weather Forecast

Advertisements
Track Severe Weather on mobile